Time;durP1;ratioP1;P1;durP2;ratioP2;P2;SDS_P1;SDS_P2;PMS_P1;PMS_P2;Temp;Humidity;BMP_temperature;BMP_pressure;BME280_temperature;BME280_humidity;BME280_pressure;Samples;Min_cycle;Max_cycle;Signal;HPM_P1;HPM_P2
2022/06/12 00:01:09;;;;;;;15.47;7.43;;;;;;;14.99;77.87;102244.00;5030956;28;20206;-73
2022/06/12 00:03:36;;;;;;;14.37;6.17;;;;;;;14.99;77.72;102251.75;5030238;28;20197;-73
2022/06/12 00:06:03;;;;;;;15.53;6.00;;;;;;;14.95;78.40;102246.44;5030696;28;20652;-74
2022/06/12 00:08:31;;;;;;;13.60;5.87;;;;;;;14.91;78.04;102247.25;5030117;28;20210;-73
2022/06/12 00:10:59;;;;;;;13.33;5.57;;;;;;;14.86;78.42;102251.38;5030282;28;20210;-73
2022/06/12 00:13:29;;;;;;;13.40;5.83;;;;;;;14.79;79.04;102241.78;5030222;28;20667;-73
2022/06/12 00:15:55;;;;;;;12.70;5.70;;;;;;;14.79;78.84;102246.94;5030145;28;20210;-73
2022/06/12 00:18:21;;;;;;;15.17;5.40;;;;;;;14.77;78.79;102252.03;5030194;28;20807;-73
2022/06/12 00:20:46;;;;;;;12.53;5.00;;;;;;;14.70;79.06;102254.44;5030093;28;20583;-73
2022/06/12 00:23:15;;;;;;;14.87;5.63;;;;;;;14.66;78.86;102255.19;5030281;28;20217;-74
2022/06/12 00:25:41;;;;;;;10.50;5.47;;;;;;;14.63;78.84;102261.13;5012079;28;20190;-74
2022/06/12 00:28:07;;;;;;;13.23;5.67;;;;;;;14.54;78.88;102260.91;5012430;28;20656;-73
2022/06/12 00:30:33;;;;;;;13.17;6.10;;;;;;;14.52;79.17;102253.97;5011912;28;20217;-73
2022/06/12 00:32:58;;;;;;;13.00;6.90;;;;;;;14.56;79.22;102258.38;5012568;28;20198;-73
2022/06/12 00:35:31;;;;;;;14.47;5.70;;;;;;;14.57;79.54;102258.41;5029126;28;20183;-74
2022/06/12 00:37:58;;;;;;;12.77;5.10;;;;;;;14.59;80.12;102256.72;5029538;28;20219;-73
2022/06/12 00:40:23;;;;;;;15.73;5.23;;;;;;;14.53;80.49;102260.84;5012132;28;20210;-73
2022/06/12 00:42:56;;;;;;;12.17;4.83;;;;;;;14.40;81.32;102254.50;5029595;28;20244;-73
2022/06/12 00:45:36;;;;;;;12.20;5.57;;;;;;;14.45;80.80;102258.09;5029644;28;20269;-73
2022/06/12 00:48:10;;;;;;;13.77;5.33;;;;;;;14.45;80.72;102260.66;5029280;28;20244;-73
2022/06/12 00:50:39;;;;;;;13.57;5.60;;;;;;;14.37;80.62;102259.56;4992702;28;20217;-73
2022/06/12 00:53:07;;;;;;;11.80;5.27;;;;;;;14.32;81.08;102258.59;5003335;28;20559;-73
2022/06/12 00:55:43;;;;;;;10.37;5.00;;;;;;;14.37;81.04;102258.72;5029843;28;20191;-73
2022/06/12 00:58:14;;;;;;;12.57;5.33;;;;;;;14.32;81.87;102255.16;5012051;28;20190;-73
2022/06/12 01:00:41;;;;;;;13.67;5.13;;;;;;;14.39;80.94;102250.19;5029670;28;20604;-74
2022/06/12 01:03:07;;;;;;;9.47;4.77;;;;;;;14.28;81.59;102250.75;5029727;28;20194;-74
2022/06/12 01:08:18;;;;;;;11.07;4.57;;;;;;;14.29;81.78;102244.75;5029564;28;20214;-73
2022/06/12 01:10:47;;;;;;;12.33;4.40;;;;;;;14.27;81.17;102255.00;5011043;28;20288;-73
2022/06/12 01:13:15;;;;;;;13.57;5.50;;;;;;;14.22;81.33;102255.75;5029923;28;20189;-73
2022/06/12 01:15:50;;;;;;;11.47;4.70;;;;;;;14.19;81.12;102242.72;5028987;28;20182;-73
2022/06/12 01:18:21;;;;;;;11.37;4.60;;;;;;;14.25;81.40;102242.91;5029703;28;20206;-74
2022/06/12 01:21:02;;;;;;;10.37;4.77;;;;;;;14.24;81.82;102244.66;5029027;28;20699;-73
2022/06/12 01:23:46;;;;;;;10.30;4.80;;;;;;;14.18;82.31;102243.56;5029296;28;20204;-73
2022/06/12 01:26:30;;;;;;;11.70;4.93;;;;;;;14.14;82.21;102240.00;5028654;28;20182;-73
2022/06/12 01:29:02;;;;;;;9.50;4.40;;;;;;;14.10;81.72;102240.78;5011657;28;20208;-73
2022/06/12 01:31:36;;;;;;;9.73;5.03;;;;;;;14.08;81.62;102229.56;5029392;28;20182;-73
2022/06/12 01:34:28;;;;;;;13.47;4.60;;;;;;;14.06;82.90;102228.66;5029736;28;20178;-73
2022/06/12 01:37:25;;;;;;;11.60;4.57;;;;;;;14.08;82.35;102233.84;5028468;28;20265;-73
2022/06/12 01:40:18;;;;;;;10.87;5.20;;;;;;;14.05;82.03;102228.59;5029335;28;20264;-73
2022/06/12 01:43:04;;;;;;;11.60;5.60;;;;;;;14.08;81.51;102224.41;5026074;28;20234;-73
2022/06/12 01:45:54;;;;;;;15.83;6.83;;;;;;;14.11;81.93;102226.19;5027848;28;20277;-73
2022/06/12 01:48:44;;;;;;;14.50;6.33;;;;;;;14.02;81.80;102237.13;5029239;28;20210;-73
2022/06/12 01:51:41;;;;;;;17.37;6.67;;;;;;;13.95;82.32;102229.19;5032940;28;20344;-73
2022/06/12 01:54:20;;;;;;;13.77;5.00;;;;;;;13.92;81.85;102226.50;5013183;28;20213;-75
2022/06/12 01:56:53;;;;;;;10.67;5.33;;;;;;;13.81;82.35;102222.78;5027843;28;20569;-75
2022/06/12 01:59:47;;;;;;;12.10;5.23;;;;;;;13.74;82.64;102224.28;5014261;28;20552;-75
2022/06/12 02:02:34;;;;;;;9.83;4.33;;;;;;;13.69;82.61;102223.28;5014255;28;20194;-75
2022/06/12 02:05:22;;;;;;;10.83;4.63;;;;;;;13.65;83.19;102215.41;5032582;28;20191;-75
2022/06/12 02:07:56;;;;;;;9.40;4.83;;;;;;;13.55;83.76;102219.44;5015284;28;20224;-75
2022/06/12 02:10:27;;;;;;;12.00;5.60;;;;;;;13.53;84.24;102213.38;5015512;28;20698;-75
2022/06/12 02:13:15;;;;;;;12.47;4.87;;;;;;;13.47;84.04;102209.72;5015138;28;20174;-75
2022/06/12 02:16:07;;;;;;;10.17;4.93;;;;;;;13.42;83.81;102208.72;5015022;28;20240;-75
2022/06/12 02:18:43;;;;;;;10.93;4.90;;;;;;;13.42;84.00;102211.31;5032648;28;20179;-72
2022/06/12 02:21:24;;;;;;;14.23;5.53;;;;;;;13.35;84.40;102217.09;5015362;28;20283;-74
2022/06/12 02:23:57;;;;;;;13.27;5.10;;;;;;;13.42;84.24;102221.59;5032382;28;20174;-75
2022/06/12 02:26:59;;;;;;;11.90;4.87;;;;;;;13.35;83.82;102207.66;5014553;28;20881;-74
2022/06/12 02:29:33;;;;;;;13.83;5.43;;;;;;;13.22;84.43;102220.13;5008408;28;20238;-75
2022/06/12 02:32:03;;;;;;;11.03;4.90;;;;;;;13.16;84.10;102218.22;4995329;28;20202;-75
2022/06/12 02:34:34;;;;;;;10.10;5.00;;;;;;;13.09;84.26;102215.44;5012331;28;20716;-75
2022/06/12 02:37:04;;;;;;;14.67;5.47;;;;;;;13.11;84.67;102222.38;5012730;28;20164;-75
2022/06/12 02:39:36;;;;;;;11.37;5.60;;;;;;;13.10;85.31;102222.31;4994517;28;20203;-75
2022/06/12 02:42:04;;;;;;;15.70;5.97;;;;;;;13.06;85.81;102216.22;4995096;28;20191;-74
2022/06/12 02:44:34;;;;;;;13.53;5.77;;;;;;;13.00;84.87;102208.31;5012175;28;20190;-74
2022/06/12 02:47:07;;;;;;;13.57;5.20;;;;;;;13.05;85.41;102206.75;4994683;28;20232;-75
2022/06/12 02:49:34;;;;;;;13.50;5.67;;;;;;;13.07;85.03;102206.81;5015315;28;20218;-75
2022/06/12 02:52:29;;;;;;;14.20;5.67;;;;;;;13.07;85.35;102196.53;5031975;28;20191;-75
2022/06/12 02:55:05;;;;;;;12.27;5.20;;;;;;;13.04;85.78;102197.28;4990579;28;20199;-74
2022/06/12 02:58:15;;;;;;;10.50;5.73;;;;;;;12.99;85.35;102200.53;5011845;28;20856;-75
2022/06/12 03:00:53;;;;;;;11.37;5.10;;;;;;;12.92;85.58;102212.28;4994508;28;20215;-75
2022/06/12 03:03:43;;;;;;;10.57;5.37;;;;;;;12.91;86.23;102213.13;4994578;28;20179;-74
2022/06/12 03:06:10;;;;;;;12.73;6.00;;;;;;;12.84;86.66;102206.03;5012215;28;20637;-74
2022/06/12 03:08:44;;;;;;;13.20;5.37;;;;;;;12.84;86.67;102206.91;5011733;28;20685;-74
2022/06/12 03:11:23;;;;;;;13.13;5.33;;;;;;;12.89;86.74;102209.63;4994603;28;20221;-74
2022/06/12 03:13:50;;;;;;;13.97;6.27;;;;;;;12.89;86.27;102209.63;5012076;28;20241;-74
2022/06/12 03:16:27;;;;;;;11.53;5.30;;;;;;;12.96;86.23;102203.84;5012268;28;20191;-74
2022/06/12 03:19:00;;;;;;;14.10;5.93;;;;;;;13.01;85.56;102204.91;4993846;28;20199;-74
2022/06/12 03:22:05;;;;;;;11.07;5.70;;;;;;;12.97;86.02;102205.63;5012076;28;20230;-74
2022/06/12 03:24:55;;;;;;;12.60;5.57;;;;;;;13.13;86.45;102207.88;5027859;28;20194;-75
2022/06/12 03:27:32;;;;;;;11.50;5.80;;;;;;;13.17;86.74;102208.84;5023487;28;20265;-74
2022/06/12 03:30:13;;;;;;;11.63;5.40;;;;;;;13.24;86.62;102203.03;5031175;28;20295;-74
2022/06/12 03:32:51;;;;;;;14.53;5.70;;;;;;;13.25;86.10;102203.09;5031637;28;20198;-75
2022/06/12 03:35:17;;;;;;;14.50;5.90;;;;;;;13.22;86.33;102192.69;5030958;28;20190;-74
2022/06/12 03:37:52;;;;;;;13.87;5.43;;;;;;;13.18;86.75;102208.00;5029587;28;20926;-74
2022/06/12 03:40:37;;;;;;;14.20;5.63;;;;;;;13.17;86.77;102206.25;5013419;28;20697;-74
2022/06/12 03:43:13;;;;;;;12.93;5.87;;;;;;;13.17;86.92;102201.97;5013690;28;20273;-74
2022/06/12 03:46:11;;;;;;;17.30;6.30;;;;;;;13.14;87.11;102201.91;5030898;28;20185;-75
2022/06/12 03:48:42;;;;;;;13.97;5.77;;;;;;;13.24;87.40;102205.59;4988364;28;20234;-75
2022/06/12 03:51:08;;;;;;;16.50;5.60;;;;;;;13.23;86.95;102207.31;5030866;28;20716;-76
2022/06/12 03:54:01;;;;;;;12.30;5.53;;;;;;;13.23;87.01;102207.31;5030738;28;20268;-74
2022/06/12 03:59:42;;;;;;;12.00;5.80;;;;;;;13.28;86.67;102207.44;5031002;28;20202;-74
2022/06/12 04:02:11;;;;;;;13.43;5.57;;;;;;;13.30;87.16;102206.66;5031091;28;20178;-74
2022/06/12 04:04:40;;;;;;;9.40;5.60;;;;;;;13.38;86.73;102212.03;5030550;28;20622;-74
2022/06/12 04:07:09;;;;;;;13.40;5.47;;;;;;;13.42;87.15;102208.72;5030756;28;20636;-74
2022/06/12 04:09:40;;;;;;;13.00;6.03;;;;;;;13.46;86.79;102210.56;5012245;28;20233;-75
2022/06/12 04:12:15;;;;;;;13.53;6.93;;;;;;;13.50;86.62;102210.72;5030120;28;20177;-74
2022/06/12 04:14:52;;;;;;;10.07;5.70;;;;;;;13.53;86.03;102208.22;5030383;28;20221;-75
2022/06/12 04:17:21;;;;;;;14.37;5.83;;;;;;;13.54;86.59;102207.38;5030427;28;20186;-74
2022/06/12 04:20:20;;;;;;;11.60;5.90;;;;;;;13.62;86.38;102203.34;5030127;28;20234;-74
2022/06/12 04:23:07;;;;;;;13.53;5.77;;;;;;;13.68;86.43;102202.66;5029262;28;20285;-75
2022/06/12 04:25:38;;;;;;;12.30;5.73;;;;;;;13.74;87.25;102205.38;5004568;28;20202;-74
2022/06/12 04:28:21;;;;;;;11.60;4.93;;;;;;;13.81;87.07;102212.47;5030454;28;20193;-75
2022/06/12 04:30:46;;;;;;;10.20;5.00;;;;;;;13.87;88.24;102200.66;5012040;28;20880;-75
2022/06/12 04:33:34;;;;;;;11.83;5.23;;;;;;;14.00;87.90;102209.56;5029176;28;20191;-75
2022/06/12 04:36:01;;;;;;;11.30;5.13;;;;;;;14.10;88.37;102212.44;5026719;28;20803;-75
2022/06/12 04:38:29;;;;;;;10.93;5.23;;;;;;;14.21;87.60;102215.31;5029776;28;20217;-75
2022/06/12 04:40:55;;;;;;;11.03;5.23;;;;;;;14.32;87.69;102204.47;5030225;28;20634;-75
2022/06/12 04:43:21;;;;;;;13.93;5.90;;;;;;;14.46;87.44;102204.84;5029857;28;20221;-75
2022/06/12 04:45:48;;;;;;;11.13;5.17;;;;;;;14.61;86.73;102207.78;5030017;28;20184;-75
2022/06/12 04:48:21;;;;;;;12.03;5.93;;;;;;;14.71;86.63;102202.91;5029431;28;20273;-74
2022/06/12 04:50:47;;;;;;;14.60;5.73;;;;;;;14.79;85.99;102203.09;5027587;28;20234;-74
2022/06/12 04:53:13;;;;;;;16.93;6.17;;;;;;;14.88;85.41;102199.00;5029135;28;20190;-74
2022/06/12 04:55:38;;;;;;;12.07;5.57;;;;;;;14.97;85.31;102198.38;5029292;28;20604;-74
2022/06/12 04:58:05;;;;;;;11.50;5.17;;;;;;;14.98;85.74;102192.38;5029404;28;20191;-75
2022/06/12 05:00:33;;;;;;;14.33;6.17;;;;;;;15.02;85.34;102189.03;5011409;28;20216;-74
2022/06/12 05:02:59;;;;;;;14.00;5.50;;;;;;;15.11;84.75;102184.06;5011832;28;20193;-74
2022/06/12 05:05:25;;;;;;;13.23;5.93;;;;;;;15.16;84.62;102185.94;5011427;28;20846;-74
2022/06/12 05:07:51;;;;;;;12.53;5.00;;;;;;;15.34;84.01;102191.50;5011562;28;20186;-74
2022/06/12 05:10:16;;;;;;;13.40;5.60;;;;;;;15.51;83.41;102181.56;5028586;28;20214;-74
2022/06/12 05:12:42;;;;;;;15.37;5.87;;;;;;;15.60;82.63;102172.28;5029271;28;20598;-75
2022/06/12 05:15:09;;;;;;;13.00;5.23;;;;;;;15.72;82.51;102174.22;5028790;28;20186;-74
2022/06/12 05:17:35;;;;;;;15.53;5.53;;;;;;;15.87;81.94;102172.81;5029211;28;20190;-75
2022/06/12 05:20:01;;;;;;;16.30;5.40;;;;;;;15.91;81.74;102176.31;5029203;28;20201;-74
2022/06/12 05:22:26;;;;;;;10.17;4.67;;;;;;;16.07;81.07;102173.22;5028540;28;20619;-75
2022/06/12 05:24:52;;;;;;;14.20;4.90;;;;;;;16.12;79.57;102169.00;5029038;28;20225;-76
2022/06/12 05:27:21;;;;;;;16.27;4.43;;;;;;;16.23;77.71;102176.09;5028537;28;20276;-73
2022/06/12 05:29:48;;;;;;;10.73;4.10;;;;;;;16.31;76.37;102160.72;5036610;28;20230;-74
2022/06/12 05:32:17;;;;;;;13.03;4.77;;;;;;;16.43;77.13;102166.09;5028288;28;20225;-74
2022/06/12 05:34:43;;;;;;;11.27;4.30;;;;;;;16.61;76.09;102161.22;5029010;28;20261;-75
2022/06/12 05:37:10;;;;;;;7.83;3.50;;;;;;;16.69;74.31;102167.41;5026621;28;20814;-75
2022/06/12 05:39:37;;;;;;;8.87;3.30;;;;;;;16.85;72.70;102167.66;5016362;28;20217;-74
2022/06/12 05:42:03;;;;;;;9.03;3.40;;;;;;;16.93;72.06;102160.91;5027318;28;20186;-74
2022/06/12 05:44:29;;;;;;;12.37;3.57;;;;;;;16.98;70.16;102172.19;5042664;28;20193;-75
2022/06/12 05:46:55;;;;;;;11.57;3.30;;;;;;;17.09;66.81;102177.53;5027183;28;20198;-76
2022/06/12 05:49:20;;;;;;;11.67;3.70;;;;;;;17.29;68.06;102173.47;5026646;28;20214;-75
2022/06/12 05:51:46;;;;;;;8.70;3.13;;;;;;;17.34;67.98;102169.22;5029101;28;20631;-75
2022/06/12 05:54:11;;;;;;;7.40;3.23;;;;;;;17.46;67.68;102174.63;5032915;28;20186;-75
2022/06/12 05:56:38;;;;;;;13.07;3.27;;;;;;;17.61;65.79;102173.09;5034093;28;20186;-75
2022/06/12 05:59:04;;;;;;;15.23;3.60;;;;;;;17.66;65.41;102166.25;5027331;28;20208;-75
2022/06/12 06:01:30;;;;;;;8.83;2.90;;;;;;;17.74;67.58;102159.41;5028300;28;20652;-75
2022/06/12 06:03:56;;;;;;;9.07;2.80;;;;;;;17.83;68.46;102156.91;5028570;28;20755;-75
2022/06/12 06:06:29;;;;;;;11.47;3.30;;;;;;;18.08;69.98;102152.84;5027995;28;20644;-74
2022/06/12 06:08:56;;;;;;;9.33;4.00;;;;;;;18.25;70.21;102157.38;5028439;28;20238;-74
2022/06/12 06:11:23;;;;;;;9.97;3.17;;;;;;;18.21;67.79;102152.13;5033845;28;20273;-74
2022/06/12 06:13:48;;;;;;;9.80;3.03;;;;;;;18.21;65.50;102165.09;5048147;28;20186;-74
2022/06/12 06:16:14;;;;;;;8.70;3.03;;;;;;;18.26;66.11;102160.81;5013835;28;20193;-74
2022/06/12 06:18:40;;;;;;;8.60;3.00;;;;;;;18.34;66.21;102167.84;5047713;28;20182;-74
2022/06/12 06:21:11;;;;;;;9.93;3.33;;;;;;;18.50;64.37;102169.72;5048113;28;20277;-74
2022/06/12 06:23:38;;;;;;;10.40;3.20;;;;;;;18.57;62.17;102173.25;5047861;28;20561;-74
2022/06/12 06:26:04;;;;;;;12.77;2.87;;;;;;;18.49;60.40;102164.50;5047935;28;20276;-74
2022/06/12 06:28:30;;;;;;;7.63;2.57;;;;;;;18.75;60.50;102157.81;5045494;28;20207;-74
2022/06/12 06:30:56;;;;;;;12.23;2.93;;;;;;;18.84;59.16;102160.47;5038192;28;20220;-74
2022/06/12 06:33:21;;;;;;;10.23;2.67;;;;;;;19.07;59.92;102156.28;5048244;28;20213;-74
2022/06/12 06:35:47;;;;;;;7.97;3.03;;;;;;;19.11;59.16;102160.66;5016974;28;20686;-74
2022/06/12 06:38:13;;;;;;;7.40;2.17;;;;;;;19.12;58.96;102160.63;5052127;28;20181;-74
2022/06/12 06:40:38;;;;;;;9.33;2.83;;;;;;;19.26;59.15;102158.16;5051408;28;20621;-74
2022/06/12 06:43:05;;;;;;;8.77;2.97;;;;;;;19.25;57.14;102159.03;5051889;28;20186;-74
2022/06/12 06:48:14;;;;;;;11.93;3.27;;;;;;;19.61;56.33;102149.66;5032311;28;20188;-74
2022/06/12 06:50:40;;;;;;;10.50;2.70;;;;;;;19.74;56.29;102142.75;5031223;28;20198;-75
2022/06/12 06:53:06;;;;;;;11.80;2.80;;;;;;;19.84;55.28;102149.72;5010453;28;20190;-74
2022/06/12 06:55:33;;;;;;;12.93;2.77;;;;;;;19.99;55.17;102148.00;5028213;28;20726;-75
2022/06/12 06:58:00;;;;;;;11.50;2.77;;;;;;;20.14;56.29;102150.69;5009111;28;20555;-74
2022/06/12 07:00:30;;;;;;;12.10;2.97;;;;;;;20.15;55.99;102147.22;5029996;28;20206;-75
2022/06/12 07:02:55;;;;;;;11.07;2.90;;;;;;;20.11;54.83;102140.28;5013549;28;20250;-74
2022/06/12 07:05:22;;;;;;;9.77;3.03;;;;;;;20.07;55.75;102143.69;5031885;28;20194;-74
2022/06/12 07:07:48;;;;;;;10.07;2.70;;;;;;;20.19;54.64;102137.69;5031052;28;20217;-74
2022/06/12 07:10:19;;;;;;;11.57;2.90;;;;;;;20.43;55.02;102138.56;5031171;28;20297;-75
2022/06/12 07:12:44;;;;;;;9.23;2.77;;;;;;;20.80;54.45;102129.84;5031789;28;20190;-74
2022/06/12 07:15:11;;;;;;;9.97;3.17;;;;;;;20.53;53.69;102144.63;5031020;28;20260;-75
2022/06/12 07:17:37;;;;;;;9.30;2.97;;;;;;;20.27;53.63;102142.00;5031570;28;20657;-74
2022/06/12 07:20:03;;;;;;;13.97;3.33;;;;;;;20.61;53.66;102125.53;5030795;28;20209;-75
2022/06/12 07:22:29;;;;;;;8.97;2.80;;;;;;;20.80;53.14;102126.38;5014029;28;20186;-74
2022/06/12 07:24:54;;;;;;;8.93;2.80;;;;;;;20.97;51.40;102138.53;5031179;28;20205;-75
2022/06/12 07:27:20;;;;;;;12.83;3.23;;;;;;;20.91;51.71;102141.13;5031246;28;20260;-75
2022/06/12 07:29:46;;;;;;;8.57;2.70;;;;;;;21.10;51.27;102136.75;5031376;28;20218;-75
2022/06/12 07:32:12;;;;;;;7.33;2.33;;;;;;;21.11;49.65;102133.28;5030857;28;20209;-74
2022/06/12 07:34:37;;;;;;;9.27;2.30;;;;;;;21.29;48.76;102134.06;4997409;28;20194;-75
2022/06/12 07:37:05;;;;;;;8.47;2.67;;;;;;;21.68;48.07;102123.47;5030301;28;20232;-74
2022/06/12 07:39:31;;;;;;;8.77;2.10;;;;;;;21.99;48.07;102119.84;5031068;28;20215;-74
2022/06/12 07:41:57;;;;;;;10.13;2.40;;;;;;;22.13;48.35;102119.72;5030615;28;20193;-75
2022/06/12 07:44:26;;;;;;;8.20;2.33;;;;;;;22.47;48.52;102118.59;5031192;28;20748;-74
2022/06/12 07:46:54;;;;;;;9.00;2.60;;;;;;;22.63;47.45;102124.56;5013081;28;20187;-75
2022/06/12 07:49:22;;;;;;;7.50;2.60;;;;;;;22.53;47.39;102123.78;5030374;28;20214;-75
2022/06/12 07:51:48;;;;;;;10.37;2.70;;;;;;;22.72;46.82;102129.69;5030815;28;20231;-75
2022/06/12 07:54:15;;;;;;;9.50;3.00;;;;;;;22.43;47.66;102116.91;5012559;28;20547;-74
2022/06/12 07:56:41;;;;;;;8.23;2.80;;;;;;;22.73;47.32;102114.00;5030655;28;20186;-74
2022/06/12 07:59:08;;;;;;;7.10;2.47;;;;;;;22.78;46.87;102114.81;5030303;28;20245;-75
2022/06/12 08:01:35;;;;;;;5.87;1.97;;;;;;;22.34;46.63;102115.19;5030525;28;20179;-75
2022/06/12 08:04:01;;;;;;;8.97;2.93;;;;;;;22.92;47.29;102117.31;5012283;28;20232;-74
2022/06/12 08:06:27;;;;;;;8.60;2.47;;;;;;;23.00;46.46;102124.19;5030820;28;20214;-74
2022/06/12 08:08:53;;;;;;;6.97;2.40;;;;;;;22.77;44.54;102131.41;5030843;28;20321;-75
2022/06/12 08:11:21;;;;;;;7.00;2.43;;;;;;;22.10;45.00;102125.84;5030859;28;20639;-74
2022/06/12 08:13:47;;;;;;;6.23;2.27;;;;;;;22.88;45.06;102128.69;5030550;28;20273;-75
2022/06/12 08:16:13;;;;;;;6.60;2.27;;;;;;;23.37;44.80;102117.66;5030081;28;20194;-74
2022/06/12 08:18:38;;;;;;;9.63;2.27;;;;;;;23.29;44.65;102127.34;5012594;28;20170;-74
2022/06/12 08:21:09;;;;;;;10.20;2.60;;;;;;;23.48;44.37;102133.22;5011875;28;20727;-75
2022/06/12 08:23:47;;;;;;;7.63;2.43;;;;;;;23.13;43.77;102133.63;5030418;28;20175;-75
2022/06/12 08:26:26;;;;;;;9.97;2.70;;;;;;;23.48;44.68;102126.22;5029855;28;20184;-74
2022/06/12 08:28:59;;;;;;;7.23;2.10;;;;;;;23.85;44.49;102122.22;5014800;28;20237;-74
2022/06/12 08:31:38;;;;;;;6.73;2.30;;;;;;;24.14;43.16;102125.31;5030478;28;20265;-75
2022/06/12 08:34:10;;;;;;;7.22;2.30;;;;;;;24.23;42.86;102125.19;5012181;28;20357;-74
2022/06/12 08:36:36;;;;;;;6.65;2.20;;;;;;;24.45;43.41;102113.44;5030015;28;20174;-75
2022/06/12 08:39:04;;;;;;;8.57;2.33;;;;;;;24.65;42.74;102106.13;5029897;28;20185;-75
2022/06/12 08:41:59;;;;;;;6.57;2.20;;;;;;;24.65;42.06;102113.13;5012297;28;20564;-74
2022/06/12 08:44:49;;;;;;;8.00;1.95;;;;;;;24.63;40.29;102105.28;5004562;28;20202;-75
2022/06/12 08:47:33;;;;;;;7.85;2.08;;;;;;;25.18;40.59;102098.09;5011735;28;20270;-74
2022/06/12 08:50:20;;;;;;;4.80;1.90;;;;;;;25.38;40.53;102100.34;5009639;28;20210;-75
2022/06/12 08:52:48;;;;;;;6.72;1.83;;;;;;;25.32;40.12;102106.56;5015280;28;20271;-74
2022/06/12 08:55:21;;;;;;;5.20;2.00;;;;;;;24.81;38.89;102093.63;5029490;28;20190;-74
2022/06/12 08:57:53;;;;;;;5.57;2.20;;;;;;;25.12;39.69;102100.84;5011218;28;20206;-74
2022/06/12 09:00:25;;;;;;;4.90;1.40;;;;;;;25.52;38.74;102099.16;5008324;28;20285;-74
2022/06/12 09:02:51;;;;;;;5.43;1.70;;;;;;;25.21;38.54;102094.53;5000715;28;20186;-74
2022/06/12 09:05:26;;;;;;;5.07;1.88;;;;;;;24.95;38.91;102096.84;5028966;28;20232;-74
2022/06/12 09:08:12;;;;;;;10.18;2.00;;;;;;;24.81;39.31;102094.47;5029075;28;20213;-74
2022/06/12 09:10:42;;;;;;;6.35;1.65;;;;;;;25.18;37.90;102090.22;5029017;28;20229;-74
2022/06/12 09:13:10;;;;;;;3.97;1.60;;;;;;;25.08;38.39;102085.19;5029258;28;20281;-74
2022/06/12 09:15:46;;;;;;;6.05;2.00;;;;;;;25.27;39.73;102090.06;5029394;28;20189;-74
2022/06/12 09:18:30;;;;;;;6.35;2.08;;;;;;;25.78;38.94;102085.44;5028585;28;20260;-74
2022/06/12 09:21:11;;;;;;;5.60;1.60;;;;;;;26.19;38.11;102083.56;5029515;28;20205;-74
2022/06/12 09:23:52;;;;;;;6.70;2.00;;;;;;;26.32;37.61;102076.22;5028803;28;20282;-74
2022/06/12 09:26:20;;;;;;;4.45;1.90;;;;;;;24.47;37.12;102082.84;5029288;28;20197;-74
2022/06/12 09:29:05;;;;;;;7.82;1.77;;;;;;;24.53;38.13;102080.13;5028794;28;20203;-74
2022/06/12 09:31:37;;;;;;;4.78;1.50;;;;;;;25.14;38.02;102072.81;5029279;28;20178;-74
2022/06/12 09:34:25;;;;;;;4.03;1.80;;;;;;;25.23;38.61;102072.63;5011288;28;20674;-74
2022/06/12 09:36:54;;;;;;;4.68;1.77;;;;;;;25.38;39.42;102071.47;5028704;28;20671;-74
2022/06/12 09:39:19;;;;;;;3.75;1.42;;;;;;;26.09;38.46;102063.69;5015212;28;20699;-74
2022/06/12 09:41:57;;;;;;;6.03;1.65;;;;;;;25.07;37.18;102068.63;5029052;28;20210;-75
2022/06/12 09:44:52;;;;;;;7.45;2.13;;;;;;;24.86;37.64;102063.78;5028961;28;20889;-74
2022/06/12 09:47:18;;;;;;;4.55;1.58;;;;;;;25.27;38.60;102061.22;5028948;28;20178;-74
2022/06/12 09:49:43;;;;;;;3.60;1.50;;;;;;;25.66;37.93;102057.72;5028603;28;20603;-75
2022/06/12 09:52:32;;;;;;;6.03;1.70;;;;;;;25.36;36.76;102055.78;5011561;28;20261;-74
2022/06/12 09:55:05;;;;;;;4.30;1.52;;;;;;;25.62;37.39;102053.44;5029052;28;20213;-74
2022/06/12 09:57:43;;;;;;;4.93;1.88;;;;;;;25.75;36.09;102054.00;4994399;28;20262;-74
2022/06/12 10:00:17;;;;;;;6.07;1.95;;;;;;;26.24;36.88;102052.78;5009531;28;20198;-74
2022/06/12 10:02:43;;;;;;;6.05;1.48;;;;;;;26.15;36.06;102045.13;5001510;28;20189;-74
2022/06/12 10:05:17;;;;;;;5.18;1.45;;;;;;;26.64;36.87;102042.13;5029023;28;20619;-74
2022/06/12 10:07:53;;;;;;;11.98;2.10;;;;;;;26.71;35.06;102046.31;5027713;28;20217;-74
2022/06/12 10:10:40;;;;;;;7.05;1.90;;;;;;;27.06;34.96;102048.78;5031961;28;20300;-74
2022/06/12 10:13:11;;;;;;;9.32;1.75;;;;;;;27.17;34.47;102039.66;5014528;28;20675;-74
2022/06/12 10:15:41;;;;;;;4.93;1.85;;;;;;;27.08;33.67;102039.94;5032930;28;20205;-74
2022/06/12 10:18:14;;;;;;;3.88;1.40;;;;;;;27.24;35.79;102027.22;5031959;28;20187;-75
2022/06/12 10:21:06;;;;;;;7.10;2.03;;;;;;;27.09;33.55;102031.16;5032596;28;20202;-74
2022/06/12 10:23:32;;;;;;;4.82;1.88;;;;;;;26.33;34.40;102028.91;5031944;28;20187;-74
2022/06/12 10:25:59;;;;;;;4.95;1.45;;;;;;;27.11;34.25;102023.19;5014858;28;20261;-74
2022/06/12 10:28:32;;;;;;;5.70;1.77;;;;;;;27.06;34.18;102025.97;5031782;28;20197;-74
2022/06/12 10:31:20;;;;;;;4.18;1.48;;;;;;;27.37;33.17;102018.94;5014688;28;20214;-74
2022/06/12 10:33:50;;;;;;;4.22;1.50;;;;;;;27.19;33.94;102019.50;5032432;28;20213;-74
2022/06/12 10:36:26;;;;;;;5.60;1.27;;;;;;;26.79;33.73;102018.00;5031731;28;20175;-74
2022/06/12 10:39:21;;;;;;;7.65;1.73;;;;;;;26.60;33.54;102015.06;5032036;28;20470;-74
2022/06/12 10:41:55;;;;;;;4.20;1.65;;;;;;;25.47;35.73;102026.66;5014058;28;20186;-74
2022/06/12 10:44:42;;;;;;;4.63;1.70;;;;;;;25.61;36.50;102012.34;5032437;28;20194;-74
2022/06/12 10:47:16;;;;;;;6.43;1.70;;;;;;;25.77;36.34;102010.19;5013866;28;20679;-74
2022/06/12 10:49:42;;;;;;;5.72;1.60;;;;;;;26.52;33.88;102003.00;4998158;28;20229;-74
2022/06/12 10:52:20;;;;;;;3.17;1.42;;;;;;;26.45;33.83;102009.31;5031508;28;20671;-75
2022/06/12 10:54:47;;;;;;;5.40;1.55;;;;;;;27.01;32.30;101990.19;5031980;28;20190;-74
2022/06/12 10:57:46;;;;;;;3.25;1.45;;;;;;;27.06;33.15;101993.53;5029434;28;20205;-74
2022/06/12 11:00:21;;;;;;;5.45;1.95;;;;;;;27.46;33.05;101997.59;5028936;28;20385;-75
2022/06/12 11:03:06;;;;;;;4.43;1.55;;;;;;;27.51;32.86;101985.13;5008451;28;20276;-74
2022/06/12 11:05:35;;;;;;;5.30;1.20;;;;;;;27.93;32.79;101988.16;4996624;28;20579;-75
2022/06/12 11:08:16;;;;;;;4.20;1.30;;;;;;;28.00;32.12;101989.69;5002649;28;20294;-74
2022/06/12 11:11:20;;;;;;;4.10;1.63;;;;;;;27.18;32.22;101990.56;5032751;28;20609;-75
2022/06/12 11:14:16;;;;;;;5.82;1.80;;;;;;;27.54;34.24;101984.19;5013936;28;21362;-73
2022/06/12 11:17:12;;;;;;;5.50;1.60;;;;;;;27.79;32.18;101985.97;5037986;28;20248;-74
2022/06/12 11:20:04;;;;;;;4.80;1.63;;;;;;;26.31;33.64;101991.31;5030501;28;20202;-74
2022/06/12 11:22:54;;;;;;;5.50;1.50;;;;;;;26.61;34.38;101981.75;5031175;28;20194;-74
2022/06/12 11:25:28;;;;;;;6.22;2.58;;;;;;;26.98;32.80;101974.53;5038643;28;20222;-74
2022/06/12 11:27:53;;;;;;;5.82;1.70;;;;;;;27.62;32.29;101974.22;5014245;28;20241;-74
2022/06/12 11:30:22;;;;;;;4.82;1.77;;;;;;;27.49;31.75;101971.16;5030824;28;20238;-74
2022/06/12 11:33:17;;;;;;;4.85;1.52;;;;;;;26.72;32.62;101967.41;5030153;28;20539;-75
2022/06/12 11:35:58;;;;;;;4.13;2.00;;;;;;;26.31;32.90;101975.53;5002365;28;20824;-74
2022/06/12 11:38:23;;;;;;;8.30;1.85;;;;;;;26.34;33.65;101980.69;5016047;28;20209;-74
2022/06/12 11:41:07;;;;;;;4.63;1.95;;;;;;;27.15;32.02;101957.31;5031100;28;20249;-74
2022/06/12 11:43:38;;;;;;;6.10;1.45;;;;;;;27.20;32.39;101965.94;4993813;28;20783;-75
2022/06/12 11:46:22;;;;;;;2.75;1.35;;;;;;;27.73;31.04;101954.53;5024762;28;20660;-75
2022/06/12 11:49:03;;;;;;;3.58;1.50;;;;;;;27.65;32.63;101959.22;5010349;28;20756;-74
2022/06/12 11:51:46;;;;;;;5.18;1.70;;;;;;;27.10;31.63;101964.47;5026697;28;20660;-74
2022/06/12 11:54:37;;;;;;;3.10;1.42;;;;;;;27.49;30.33;101957.13;5030588;28;20232;-75
2022/06/12 11:57:19;;;;;;;6.10;1.73;;;;;;;27.36;32.14;101950.53;5030449;28;20178;-74
2022/06/12 11:59:59;;;;;;;4.80;1.58;;;;;;;26.99;32.73;101950.78;5030816;28;20206;-74